Ouargla, Ouargla Ain Beida Airport (DAUU)

NameOuargla Ain Beida Airport
CityOuargla
CountryAlgeria
ICAODAUU
IATAOGX
Altitude152 m
CoordinatesGoogle Map
Live Air TrafficLiveATC.net
METARDAUU 251700Z 13018KT 5000 DRSA FEW033TCU 32/00 Q1001
2020-04-25 17:00:00 Wind: East-Southeast (130°) 9.26 m/s - Visibility: 5000 m - Temperature: 32 °C - Dew point: 0 °C - Humidity: 12.7% - Pressure: 1001 hPa

Sorry, no flights used the airport in this database.